Holland, Minnesota
Current Conditions -  °F | °C
As of 7:14 AM on Friday 24 Oct 2014 (Local Time) from KPQN Reporting Station
Haze Haze  
Wind Chill: 46°   Ceiling: Unl
Heat Index: 48°   Visibility: 5mi
Dew Point: 46°   Wind: 5mph
Humidity: 93%   Direction: 240°WSW
Pressure: 29.84"   Gusts: NA
Location:  44.09°N, 96.19°W
Report Text: KPQN 241214Z AUTO 24004KT 5SM BR CLR 09/08 A2984 RMK AO2
Loading
Personal Weather Stations






























Interactive Weather Map New forecast layout! Learn more

10-Day Weather Forecast

Advertisements
Track Severe Weather on mobile